Time;durP1;ratioP1;P1;durP2;ratioP2;P2;SDS_P1;SDS_P2;PMS_P1;PMS_P2;Temp;Humidity;BMP_temperature;BMP_pressure;BME280_temperature;BME280_humidity;BME280_pressure;Samples;Min_cycle;Max_cycle;Signal;HPM_P1;HPM_P2
2022/05/31 05:00:07;;;;;;;2.70;2.50;;;11.70;97.20;;;;;;1714550;28;20196;-72
2022/05/31 05:01:01;;;;;;;2.70;2.30;;;11.80;97.20;;;;;;1714598;28;20619;-72
2022/05/31 05:01:53;;;;;;;3.17;2.42;;;11.80;97.20;;;;;;1714468;28;20229;-72
2022/05/31 05:02:43;;;;;;;2.45;2.30;;;11.90;97.20;;;;;;1714533;28;20229;-72
2022/05/31 05:03:36;;;;;;;2.70;2.50;;;11.90;97.20;;;;;;1714486;28;20204;-72
2022/05/31 05:04:26;;;;;;;3.17;2.50;;;11.90;97.20;;;;;;1714482;28;20678;-72
2022/05/31 05:05:18;;;;;;;4.30;2.70;;;12.00;97.20;;;;;;1714011;28;20684;-72
2022/05/31 05:06:10;;;;;;;3.20;2.90;;;12.00;97.20;;;;;;1707791;29;20333;-72
2022/05/31 05:07:02;;;;;;;2.72;2.50;;;12.10;97.20;;;;;;1707568;28;20264;-72
2022/05/31 05:07:53;;;;;;;3.30;3.00;;;12.10;97.20;;;;;;1707755;29;20202;-72
2022/05/31 05:08:45;;;;;;;3.60;3.20;;;12.20;97.20;;;;;;1707804;29;20197;-72
2022/05/31 05:09:36;;;;;;;3.78;3.47;;;12.20;97.20;;;;;;1707752;29;20202;-72
2022/05/31 05:10:27;;;;;;;3.43;3.13;;;12.20;97.20;;;;;;1707860;28;20217;-73
2022/05/31 05:11:21;;;;;;;3.90;3.50;;;12.30;97.20;;;;;;1707733;29;20210;-73
2022/05/31 05:12:12;;;;;;;4.30;3.67;;;12.30;97.20;;;;;;1707691;29;20221;-73
2022/05/31 05:13:03;;;;;;;3.33;3.03;;;12.30;97.20;;;;;;1707772;29;20202;-73
2022/05/31 05:13:56;;;;;;;3.97;3.33;;;12.40;97.20;;;;;;1707735;29;20286;-71
2022/05/31 05:14:47;;;;;;;3.63;3.33;;;12.40;97.20;;;;;;1707796;29;20445;-71
2022/05/31 05:15:41;;;;;;;4.57;3.50;;;12.40;97.20;;;;;;1707712;29;20214;-71
2022/05/31 05:16:32;;;;;;;3.90;3.60;;;12.50;97.20;;;;;;1713159;28;20454;-71
2022/05/31 05:17:24;;;;;;;5.37;3.40;;;12.50;97.20;;;;;;1714161;28;20197;-71
2022/05/31 05:18:15;;;;;;;4.32;3.33;;;12.60;97.20;;;;;;1714219;28;20288;-74
2022/05/31 05:19:07;;;;;;;4.07;3.67;;;12.60;97.20;;;;;;1714577;28;20201;-72
2022/05/31 05:19:58;;;;;;;4.28;3.65;;;12.70;97.20;;;;;;1714361;28;20213;-71
2022/05/31 05:20:50;;;;;;;3.63;3.30;;;12.70;97.20;;;;;;1714453;28;20281;-71
2022/05/31 05:21:40;;;;;;;3.50;3.15;;;12.70;97.20;;;;;;1714374;28;20833;-71
2022/05/31 05:22:32;;;;;;;4.47;3.07;;;12.80;97.20;;;;;;1714306;28;20674;-71
2022/05/31 05:23:23;;;;;;;3.65;2.80;;;12.80;97.20;;;;;;1714314;28;20237;-71
2022/05/31 05:24:15;;;;;;;3.20;2.90;;;12.80;97.20;;;;;;1714258;28;20201;-71
2022/05/31 05:25:08;;;;;;;3.60;3.05;;;12.90;97.20;;;;;;1714475;28;20217;-71
2022/05/31 05:26:00;;;;;;;2.90;2.63;;;12.90;97.20;;;;;;1712862;28;20198;-71
2022/05/31 05:26:51;;;;;;;3.10;2.80;;;12.90;97.20;;;;;;1708196;28;20235;-71
2022/05/31 05:27:43;;;;;;;3.17;2.70;;;13.00;97.20;;;;;;1709476;28;20195;-71
2022/05/31 05:30:55;;;;;;;4.45;2.78;;;13.10;97.20;;;;;;1707776;29;20206;-70
2022/05/31 05:31:47;;;;;;;3.45;2.80;;;13.20;97.20;;;;;;1708526;28;20272;-70
2022/05/31 05:32:37;;;;;;;3.40;3.00;;;13.20;97.20;;;;;;1713826;28;20242;-70
2022/05/31 05:33:30;;;;;;;3.43;3.13;;;13.30;97.20;;;;;;1713828;28;20216;-74
2022/05/31 05:34:21;;;;;;;2.70;2.50;;;13.30;97.20;;;;;;1713741;28;20202;-74
2022/05/31 05:35:12;;;;;;;2.60;2.40;;;13.40;97.20;;;;;;1714222;28;20210;-70
2022/05/31 05:36:03;;;;;;;3.58;3.00;;;13.50;97.20;;;;;;1712134;28;20248;-70
2022/05/31 05:36:55;;;;;;;3.70;2.87;;;13.50;97.20;;;;;;1713212;28;20208;-71
2022/05/31 05:37:45;;;;;;;3.40;3.10;;;13.50;97.20;;;;;;1714043;28;20952;-71
2022/05/31 05:38:37;;;;;;;3.50;2.90;;;13.60;97.20;;;;;;1712987;28;20586;-71
2022/05/31 05:39:28;;;;;;;3.47;2.85;;;13.60;97.20;;;;;;1713835;28;20198;-70
2022/05/31 05:40:19;;;;;;;3.40;3.03;;;13.70;97.20;;;;;;1714143;28;20206;-70
2022/05/31 05:41:10;;;;;;;3.67;2.63;;;13.70;97.20;;;;;;1708770;28;20573;-71
2022/05/31 05:42:02;;;;;;;3.53;3.23;;;13.80;97.20;;;;;;1707527;28;20217;-70
2022/05/31 05:42:53;;;;;;;2.88;2.67;;;13.80;97.20;;;;;;1713768;28;20577;-71
2022/05/31 05:43:44;;;;;;;3.23;2.93;;;13.90;97.20;;;;;;1714038;28;20567;-71
2022/05/31 05:44:35;;;;;;;4.35;3.10;;;13.90;97.20;;;;;;1713482;28;20229;-70
2022/05/31 05:45:27;;;;;;;3.63;2.97;;;14.00;97.20;;;;;;1713548;28;20213;-71
2022/05/31 05:46:21;;;;;;;3.38;3.05;;;14.00;97.20;;;;;;1707670;28;20242;-71
2022/05/31 05:47:14;;;;;;;4.25;3.38;;;14.00;97.20;;;;;;1708542;28;20573;-71
2022/05/31 05:48:06;;;;;;;5.93;3.38;;;14.00;97.20;;;;;;1711974;28;20825;-71
2022/05/31 05:48:58;;;;;;;3.10;2.80;;;14.00;97.20;;;;;;1714032;28;20249;-71
2022/05/31 05:49:48;;;;;;;3.25;2.95;;;14.00;97.20;;;;;;1713541;28;20227;-71
2022/05/31 05:50:40;;;;;;;4.20;3.20;;;14.00;97.20;;;;;;1713733;28;20197;-68
2022/05/31 05:51:33;;;;;;;3.63;3.17;;;14.00;97.20;;;;;;1713849;28;20705;-71
2022/05/31 05:52:25;;;;;;;3.92;3.63;;;14.00;97.20;;;;;;1714127;28;20225;-71
2022/05/31 05:53:15;;;;;;;3.28;3.08;;;14.10;97.20;;;;;;1714135;28;20230;-70
2022/05/31 05:54:08;;;;;;;3.00;2.80;;;14.10;97.20;;;;;;1714219;28;20197;-71
2022/05/31 05:54:59;;;;;;;3.50;2.70;;;14.10;97.20;;;;;;1714047;28;20344;-70
2022/05/31 05:55:50;;;;;;;3.70;3.37;;;14.20;97.20;;;;;;1714047;28;20666;-71
2022/05/31 05:56:41;;;;;;;3.78;3.30;;;14.20;97.20;;;;;;1713732;28;20216;-71
2022/05/31 05:57:33;;;;;;;3.90;3.20;;;14.30;97.20;;;;;;1714098;28;20205;-71
2022/05/31 05:58:24;;;;;;;4.82;3.33;;;14.30;97.20;;;;;;1713724;28;20201;-71
2022/05/31 05:59:17;;;;;;;3.57;3.27;;;14.40;97.20;;;;;;1714007;28;20212;-71
2022/05/31 06:00:09;;;;;;;4.20;3.80;;;14.40;97.20;;;;;;1714085;28;20205;-71
2022/05/31 06:01:01;;;;;;;3.85;3.33;;;14.40;97.20;;;;;;1713925;28;20253;-71
2022/05/31 06:01:58;;;;;;;4.45;3.20;;;14.50;97.20;;;;;;1713404;28;20205;-71
2022/05/31 06:02:54;;;;;;;4.80;3.17;;;14.50;97.20;;;;;;1713563;28;20784;-71
2022/05/31 06:03:56;;;;;;;4.07;3.67;;;14.60;97.20;;;;;;1713996;28;20202;-68
2022/05/31 06:04:53;;;;;;;3.60;3.30;;;14.60;97.20;;;;;;1713842;28;20198;-70
2022/05/31 06:05:45;;;;;;;5.13;3.30;;;14.60;97.20;;;;;;1714124;28;20230;-71
2022/05/31 06:06:40;;;;;;;3.40;3.10;;;14.60;97.20;;;;;;1713394;28;20223;-70
2022/05/31 06:07:34;;;;;;;4.55;3.45;;;14.60;97.20;;;;;;1707238;29;20206;-71
2022/05/31 06:08:31;;;;;;;4.07;3.67;;;14.60;97.20;;;;;;1707230;28;20194;-71
2022/05/31 06:09:24;;;;;;;4.30;3.50;;;14.60;97.20;;;;;;1707364;28;20234;-71
2022/05/31 06:10:19;;;;;;;5.38;3.28;;;14.60;97.20;;;;;;1707187;28;20582;-71
2022/05/31 06:11:13;;;;;;;5.10;3.83;;;14.60;97.20;;;;;;1707373;28;20575;-71
2022/05/31 06:12:08;;;;;;;4.80;3.78;;;14.70;97.20;;;;;;1707291;28;20309;-71
2022/05/31 06:13:06;;;;;;;3.45;3.20;;;14.70;97.20;;;;;;1707343;28;20238;-71
2022/05/31 06:14:03;;;;;;;4.30;3.17;;;14.70;97.20;;;;;;1707384;28;20210;-71
2022/05/31 06:14:57;;;;;;;4.05;3.30;;;14.80;97.20;;;;;;1707141;28;20710;-71
2022/05/31 06:15:53;;;;;;;3.60;3.28;;;14.90;97.20;;;;;;1706913;28;20624;-71
2022/05/31 06:16:49;;;;;;;4.18;3.78;;;14.90;97.20;;;;;;1707174;28;20237;-70
2022/05/31 06:17:46;;;;;;;5.93;3.45;;;15.00;97.20;;;;;;1707507;28;20198;-71
2022/05/31 06:18:43;;;;;;;4.20;2.47;;;15.10;97.20;;;;;;1707289;28;20207;-71
2022/05/31 06:19:36;;;;;;;2.72;2.53;;;15.10;97.20;;;;;;1707373;28;20289;-71
2022/05/31 06:20:29;;;;;;;5.65;3.20;;;15.10;97.20;;;;;;1707396;28;20234;-71
2022/05/31 06:21:24;;;;;;;3.65;2.30;;;15.10;97.20;;;;;;1713019;28;20197;-71
2022/05/31 06:22:16;;;;;;;2.40;2.20;;;15.10;97.20;;;;;;1713876;28;20328;-70
2022/05/31 06:23:08;;;;;;;2.65;2.40;;;15.20;97.20;;;;;;1713951;28;20206;-71
2022/05/31 06:24:00;;;;;;;2.20;2.00;;;15.20;97.20;;;;;;1713902;28;20217;-71
2022/05/31 06:24:52;;;;;;;4.53;2.70;;;15.20;97.20;;;;;;1713887;28;20198;-71
2022/05/31 06:25:42;;;;;;;2.50;2.30;;;15.30;97.20;;;;;;1713929;28;20233;-71
2022/05/31 06:26:34;;;;;;;2.40;2.20;;;15.30;97.20;;;;;;1713635;28;20685;-70
2022/05/31 06:27:25;;;;;;;2.80;2.60;;;15.40;97.20;;;;;;1713966;28;20201;-71
2022/05/31 06:28:17;;;;;;;2.87;2.40;;;15.50;97.20;;;;;;1713608;28;20200;-71
2022/05/31 06:29:08;;;;;;;3.80;2.88;;;15.50;97.20;;;;;;1713981;28;20439;-71
2022/05/31 06:29:59;;;;;;;2.70;2.00;;;15.60;97.20;;;;;;1713828;28;20225;-71
2022/05/31 06:30:50;;;;;;;4.60;2.00;;;15.70;97.20;;;;;;1713611;28;20236;-71
2022/05/31 06:31:42;;;;;;;2.60;2.30;;;15.70;97.20;;;;;;1713966;28;20198;-71
2022/05/31 06:32:32;;;;;;;3.63;2.22;;;15.80;97.20;;;;;;1713778;28;20723;-71
2022/05/31 06:33:25;;;;;;;2.80;2.60;;;15.90;97.20;;;;;;1713875;28;20687;-71
2022/05/31 06:34:16;;;;;;;3.28;2.30;;;15.90;97.20;;;;;;1713851;28;20677;-71
2022/05/31 06:35:08;;;;;;;4.13;2.73;;;16.00;97.20;;;;;;1714004;28;20575;-71
2022/05/31 06:36:01;;;;;;;2.65;2.45;;;16.10;97.20;;;;;;1713763;28;20819;-71
2022/05/31 06:37:02;;;;;;;2.45;2.25;;;16.20;97.20;;;;;;1713612;28;20205;-71
2022/05/31 06:37:54;;;;;;;2.90;2.58;;;16.20;97.20;;;;;;1712587;28;20202;-71
2022/05/31 06:38:45;;;;;;;3.65;2.40;;;16.30;97.20;;;;;;1713801;28;20206;-71
2022/05/31 06:39:38;;;;;;;3.15;2.90;;;16.30;97.20;;;;;;1713797;28;20744;-71
2022/05/31 06:40:29;;;;;;;3.00;2.70;;;16.40;97.20;;;;;;1713958;28;20255;-71
2022/05/31 06:41:20;;;;;;;4.53;2.28;;;16.50;97.20;;;;;;1713854;28;20286;-71
2022/05/31 06:42:12;;;;;;;3.90;2.70;;;16.50;97.20;;;;;;1713864;28;20712;-71
2022/05/31 06:43:04;;;;;;;5.63;3.00;;;16.60;97.20;;;;;;1713916;28;20202;-71
2022/05/31 06:43:56;;;;;;;2.50;2.30;;;16.60;97.20;;;;;;1713890;28;20304;-71
2022/05/31 06:44:47;;;;;;;2.67;2.30;;;16.60;97.20;;;;;;1714145;28;20208;-71
2022/05/31 06:45:38;;;;;;;2.60;2.40;;;16.60;97.20;;;;;;1713815;28;20600;-71
2022/05/31 06:46:31;;;;;;;2.63;2.30;;;16.60;97.20;;;;;;1713899;28;20689;-71
2022/05/31 06:47:22;;;;;;;3.15;2.47;;;16.60;97.20;;;;;;1713863;28;20359;-71
2022/05/31 06:48:14;;;;;;;2.90;2.47;;;16.60;97.20;;;;;;1713790;28;20205;-71
2022/05/31 06:49:06;;;;;;;3.72;2.70;;;16.50;97.20;;;;;;1713957;28;20686;-71
2022/05/31 06:49:57;;;;;;;3.65;2.40;;;16.50;97.20;;;;;;1713897;28;20210;-71
2022/05/31 06:50:48;;;;;;;5.97;2.80;;;16.40;97.20;;;;;;1714034;28;20697;-71
2022/05/31 06:57:31;;;;;;;3.10;2.30;;;16.30;97.20;;;;;;1713957;28;20685;-71
2022/05/31 06:58:23;;;;;;;3.90;2.10;;;16.20;97.20;;;;;;1713599;28;20213;-71
2022/05/31 06:59:13;;;;;;;2.20;2.00;;;16.20;97.20;;;;;;1713776;28;20321;-71
2022/05/31 07:00:07;;;;;;;3.40;2.20;;;16.20;97.20;;;;;;1713726;28;20205;-71
2022/05/31 07:01:04;;;;;;;2.50;2.28;;;16.30;97.20;;;;;;1712900;28;20202;-71
2022/05/31 07:02:03;;;;;;;3.17;1.88;;;16.30;97.20;;;;;;1713774;28;20237;-71
2022/05/31 07:02:56;;;;;;;2.13;1.90;;;16.30;97.20;;;;;;1713787;28;20202;-71
2022/05/31 07:03:46;;;;;;;2.50;2.30;;;16.30;97.20;;;;;;1713830;28;20551;-71
2022/05/31 07:04:39;;;;;;;3.77;1.93;;;16.30;97.20;;;;;;1713781;28;20228;-68
2022/05/31 07:05:30;;;;;;;2.33;1.75;;;16.30;97.20;;;;;;1713859;28;20209;-71
2022/05/31 07:06:22;;;;;;;3.03;2.00;;;16.40;97.20;;;;;;1713729;28;20205;-71
2022/05/31 07:07:14;;;;;;;2.47;1.98;;;16.40;97.20;;;;;;1713525;28;20605;-71
2022/05/31 07:08:06;;;;;;;2.22;1.85;;;16.50;97.20;;;;;;1713420;28;20202;-71
2022/05/31 07:08:57;;;;;;;3.08;2.45;;;16.50;97.20;;;;;;1713791;28;20256;-68
2022/05/31 07:09:48;;;;;;;2.33;2.13;;;16.50;97.20;;;;;;1713790;28;20190;-68
2022/05/31 07:10:39;;;;;;;3.70;2.33;;;16.50;97.20;;;;;;1713768;28;20201;-68
2022/05/31 07:11:31;;;;;;;2.57;2.07;;;16.50;97.20;;;;;;1713829;28;20208;-68
2022/05/31 07:12:22;;;;;;;2.55;2.08;;;16.60;97.20;;;;;;1713606;28;20277;-68
2022/05/31 07:13:13;;;;;;;2.43;2.23;;;16.60;97.20;;;;;;1713850;28;20209;-68
2022/05/31 07:14:04;;;;;;;1.92;1.70;;;16.60;97.20;;;;;;1713857;28;20236;-68
2022/05/31 07:14:56;;;;;;;2.10;1.90;;;16.70;97.20;;;;;;1713775;28;20202;-68
2022/05/31 07:15:50;;;;;;;2.63;1.98;;;16.70;97.20;;;;;;1713736;28;20961;-68
2022/05/31 07:16:42;;;;;;;3.45;1.65;;;16.80;97.20;;;;;;1713524;28;20696;-68
2022/05/31 07:17:34;;;;;;;2.72;2.10;;;16.90;97.20;;;;;;1713774;28;20202;-68
2022/05/31 07:18:24;;;;;;;1.83;1.73;;;17.00;97.20;;;;;;1713692;28;20210;-68
2022/05/31 07:19:16;;;;;;;6.47;2.13;;;17.00;97.20;;;;;;1713589;28;20204;-68
2022/05/31 07:20:09;;;;;;;3.20;2.08;;;17.10;97.20;;;;;;1713781;28;20202;-69
2022/05/31 07:21:02;;;;;;;2.55;1.98;;;17.20;97.20;;;;;;1713808;28;20267;-68
2022/05/31 07:21:56;;;;;;;2.50;1.52;;;17.30;97.20;;;;;;1713439;28;20256;-71
2022/05/31 07:22:48;;;;;;;2.20;1.90;;;17.40;97.20;;;;;;1713863;28;20198;-71
2022/05/31 07:23:40;;;;;;;1.63;1.52;;;17.50;97.20;;;;;;1713660;28;20642;-71
2022/05/31 07:24:32;;;;;;;1.85;1.75;;;17.60;97.20;;;;;;1713537;28;20650;-71
2022/05/31 07:25:23;;;;;;;2.13;1.90;;;17.70;97.20;;;;;;1713599;28;20213;-71
2022/05/31 07:26:15;;;;;;;2.37;2.00;;;17.80;97.20;;;;;;1713715;28;20213;-71
2022/05/31 07:27:06;;;;;;;2.85;2.17;;;17.80;97.20;;;;;;1713473;28;20210;-71
2022/05/31 07:27:58;;;;;;;1.97;1.77;;;17.90;97.20;;;;;;1713589;28;20292;-71
2022/05/31 07:28:49;;;;;;;2.05;1.60;;;17.90;97.20;;;;;;1715052;28;20205;-71
2022/05/31 07:29:40;;;;;;;2.63;1.73;;;17.90;97.20;;;;;;1715012;28;20202;-71
2022/05/31 07:30:31;;;;;;;2.85;1.90;;;18.00;97.20;;;;;;1715023;28;20217;-71
2022/05/31 07:31:23;;;;;;;2.07;1.80;;;18.10;97.20;;;;;;1714986;28;20201;-71
2022/05/31 07:32:13;;;;;;;2.20;1.60;;;18.20;97.20;;;;;;1714981;28;20226;-71
2022/05/31 07:33:05;;;;;;;1.77;1.60;;;18.30;97.20;;;;;;1715145;28;20205;-71
2022/05/31 07:33:58;;;;;;;2.00;1.80;;;18.40;97.20;;;;;;1714940;28;20208;-71
2022/05/31 07:34:50;;;;;;;1.88;1.58;;;18.50;97.20;;;;;;1715019;28;20276;-71
2022/05/31 07:35:43;;;;;;;2.20;1.88;;;18.60;97.20;;;;;;1714939;28;20202;-69
2022/05/31 07:36:35;;;;;;;1.73;1.63;;;18.60;97.20;;;;;;1714737;28;20724;-71
2022/05/31 07:37:26;;;;;;;2.42;1.90;;;18.70;97.20;;;;;;1715250;28;20572;-71
2022/05/31 07:38:17;;;;;;;3.28;1.80;;;18.70;97.20;;;;;;1714808;28;20205;-71
2022/05/31 07:39:11;;;;;;;1.80;1.70;;;18.70;97.20;;;;;;1714976;28;20212;-71
2022/05/31 07:40:03;;;;;;;2.20;2.00;;;18.70;97.20;;;;;;1714983;28;20920;-71
2022/05/31 07:40:55;;;;;;;4.20;2.05;;;18.80;97.20;;;;;;1714881;28;20684;-71
2022/05/31 07:41:46;;;;;;;2.35;2.15;;;18.80;97.20;;;;;;1714597;28;20240;-68
2022/05/31 07:42:38;;;;;;;2.10;1.60;;;18.80;97.20;;;;;;1714934;28;20272;-68
2022/05/31 07:43:29;;;;;;;2.85;1.73;;;18.80;97.20;;;;;;1714990;28;20209;-71
2022/05/31 07:44:21;;;;;;;2.20;2.00;;;18.80;97.20;;;;;;1714937;28;20205;-70
2022/05/31 07:45:12;;;;;;;4.45;1.70;;;18.70;97.20;;;;;;1714923;28;20237;-68
2022/05/31 07:46:06;;;;;;;2.33;2.03;;;18.80;97.20;;;;;;1714759;28;20209;-68
2022/05/31 07:46:59;;;;;;;4.65;1.75;;;18.70;97.20;;;;;;1714588;28;20458;-68
2022/05/31 07:47:51;;;;;;;1.90;1.80;;;18.70;97.20;;;;;;1714786;28;20220;-71
2022/05/31 07:48:41;;;;;;;2.20;2.00;;;18.80;97.20;;;;;;1714910;28;20608;-71
2022/05/31 07:49:33;;;;;;;1.70;1.60;;;18.80;97.20;;;;;;1714829;28;20205;-71
2022/05/31 07:50:26;;;;;;;3.45;2.25;;;18.70;97.20;;;;;;1714895;28;20239;-71
2022/05/31 07:51:18;;;;;;;2.42;1.73;;;18.70;97.20;;;;;;1714917;28;20412;-71
2022/05/31 07:52:11;;;;;;;2.70;1.95;;;18.60;97.20;;;;;;1714498;28;20450;-71
2022/05/31 07:53:03;;;;;;;2.72;2.13;;;18.50;97.20;;;;;;1714797;28;20229;-71
2022/05/31 07:53:55;;;;;;;2.35;2.15;;;18.50;97.20;;;;;;1714857;28;20222;-71
2022/05/31 07:54:46;;;;;;;1.85;1.60;;;18.50;97.20;;;;;;1714861;28;20688;-71
2022/05/31 07:55:37;;;;;;;2.60;2.30;;;18.50;97.20;;;;;;1714736;28;20698;-71
2022/05/31 07:56:28;;;;;;;2.40;1.88;;;18.50;97.20;;;;;;1714852;28;20689;-71
2022/05/31 07:58:32;;;;;;;3.38;2.35;;;18.50;97.20;;;;;;1714593;28;20205;-71
2022/05/31 07:59:23;;;;;;;2.40;1.88;;;18.50;97.20;;;;;;1714820;28;20213;-71
2022/05/31 08:00:16;;;;;;;2.50;1.90;;;18.40;97.20;;;;;;1714839;28;20293;-71
2022/05/31 08:01:10;;;;;;;4.45;1.77;;;18.40;97.20;;;;;;1714910;28;20201;-71
2022/05/31 08:02:01;;;;;;;3.10;2.00;;;18.50;97.20;;;;;;1714763;28;20813;-71
2022/05/31 08:02:53;;;;;;;2.47;2.28;;;18.50;97.20;;;;;;1714843;28;20194;-68
2022/05/31 08:03:44;;;;;;;1.80;1.70;;;18.50;97.20;;;;;;1714805;28;20244;-68
2022/05/31 08:04:37;;;;;;;2.00;1.80;;;18.50;97.20;;;;;;1714834;28;20201;-68
2022/05/31 08:05:29;;;;;;;1.98;1.77;;;18.50;97.20;;;;;;1714561;28;20206;-68
2022/05/31 08:06:24;;;;;;;1.75;1.63;;;18.50;97.20;;;;;;1714636;28;20208;-71
2022/05/31 08:07:14;;;;;;;1.80;1.70;;;18.60;97.20;;;;;;1714518;28;20202;-71
2022/05/31 08:08:09;;;;;;;2.23;1.87;;;18.60;97.20;;;;;;1714702;28;20194;-71
2022/05/31 08:09:00;;;;;;;2.13;1.80;;;18.70;97.20;;;;;;1714788;28;20245;-71
2022/05/31 08:09:52;;;;;;;2.47;2.27;;;18.80;97.20;;;;;;1714821;28;20237;-71
2022/05/31 08:10:42;;;;;;;2.13;1.48;;;18.80;97.20;;;;;;1714344;28;20622;-71
2022/05/31 08:11:35;;;;;;;2.53;2.10;;;18.80;97.20;;;;;;1714750;28;20224;-71
2022/05/31 08:12:26;;;;;;;2.42;1.83;;;18.90;97.20;;;;;;1714793;28;20313;-71
2022/05/31 08:13:18;;;;;;;1.80;1.70;;;18.90;97.20;;;;;;1714797;28;20205;-68
2022/05/31 08:14:09;;;;;;;2.10;1.77;;;18.90;97.20;;;;;;1714794;28;20690;-69
2022/05/31 08:15:00;;;;;;;3.30;2.37;;;18.90;97.20;;;;;;1714721;28;20684;-69
2022/05/31 08:15:52;;;;;;;3.10;1.50;;;19.00;97.20;;;;;;1714689;28;20460;-69
2022/05/31 08:16:44;;;;;;;2.15;1.95;;;19.00;97.20;;;;;;1714490;28;20198;-68
2022/05/31 08:17:34;;;;;;;3.35;1.60;;;19.00;97.20;;;;;;1714671;28;20243;-68
2022/05/31 08:18:26;;;;;;;2.73;2.00;;;19.00;97.20;;;;;;1714673;28;20197;-69
2022/05/31 08:19:17;;;;;;;2.47;1.98;;;19.00;97.20;;;;;;1714719;28;20239;-69
2022/05/31 08:20:10;;;;;;;2.10;1.90;;;19.10;97.20;;;;;;1714666;28;20221;-68
2022/05/31 08:21:01;;;;;;;2.13;1.92;;;19.10;97.20;;;;;;1714612;28;20480;-69
2022/05/31 08:21:54;;;;;;;2.15;1.80;;;19.20;97.20;;;;;;1714521;28;20222;-68
2022/05/31 08:22:45;;;;;;;2.22;1.80;;;19.20;97.20;;;;;;1714393;28;20677;-69
2022/05/31 08:23:38;;;;;;;1.97;1.77;;;19.30;97.20;;;;;;1714688;28;20687;-68
2022/05/31 08:24:29;;;;;;;2.92;2.10;;;19.30;97.20;;;;;;1714759;28;20244;-68
2022/05/31 08:25:21;;;;;;;2.33;1.67;;;19.40;97.20;;;;;;1714612;28;20256;-68
2022/05/31 08:26:11;;;;;;;2.00;1.90;;;19.40;97.20;;;;;;1714662;28;20453;-69
2022/05/31 08:27:04;;;;;;;1.80;1.70;;;19.50;97.20;;;;;;1714448;28;20201;-68
2022/05/31 08:27:55;;;;;;;2.58;2.22;;;19.50;97.20;;;;;;1714379;28;20666;-68
2022/05/31 08:28:47;;;;;;;3.08;2.28;;;19.50;97.20;;;;;;1714696;28;20198;-69
2022/05/31 08:29:37;;;;;;;2.10;1.90;;;19.50;97.20;;;;;;1714642;28;20210;-68
2022/05/31 08:30:30;;;;;;;2.03;1.83;;;19.50;97.20;;;;;;1714660;28;20200;-69
2022/05/31 08:31:24;;;;;;;2.53;1.75;;;19.50;97.20;;;;;;1714597;28;20216;-69
2022/05/31 08:32:16;;;;;;;1.80;1.65;;;19.50;97.20;;;;;;1714600;28;20280;-68
2022/05/31 08:33:06;;;;;;;1.80;1.60;;;19.50;97.20;;;;;;1714744;28;20205;-68
2022/05/31 08:33:59;;;;;;;1.80;1.70;;;19.60;97.20;;;;;;1714553;28;20680;-68
2022/05/31 08:34:49;;;;;;;7.07;1.80;;;19.60;97.20;;;;;;1714563;28;20214;-68
2022/05/31 08:35:41;;;;;;;2.90;1.73;;;19.70;97.20;;;;;;1714578;28;20204;-69
2022/05/31 08:36:32;;;;;;;1.70;1.60;;;19.80;97.20;;;;;;1714296;28;20252;-68
2022/05/31 08:37:25;;;;;;;2.22;1.60;;;19.90;97.20;;;;;;1714567;28;20293;-68
2022/05/31 08:38:16;;;;;;;4.18;2.00;;;20.00;97.20;;;;;;1714536;28;20206;-68
2022/05/31 08:39:08;;;;;;;1.90;1.60;;;20.00;97.20;;;;;;1714033;28;20722;-68
2022/05/31 08:39:58;;;;;;;2.00;1.63;;;20.20;97.20;;;;;;1714417;28;20233;-69
2022/05/31 08:41:03;;;;;;;3.23;1.70;;;20.30;97.20;;;;;;1714647;28;20205;-68
2022/05/31 08:42:02;;;;;;;2.20;1.80;;;20.50;97.20;;;;;;1714440;28;20594;-69
2022/05/31 08:43:02;;;;;;;3.08;1.83;;;20.60;97.20;;;;;;1714656;28;20579;-71
2022/05/31 08:44:01;;;;;;;4.00;2.53;;;20.70;97.20;;;;;;1714588;28;20680;-68
2022/05/31 08:45:00;;;;;;;4.43;1.73;;;20.90;97.20;;;;;;1714590;28;20210;-69
2022/05/31 08:45:53;;;;;;;2.60;1.75;;;21.00;97.20;;;;;;1714581;28;20700;-68
2022/05/31 08:46:59;;;;;;;3.83;1.88;;;21.10;97.20;;;;;;1714233;28;20208;-68
2022/05/31 08:47:58;;;;;;;2.28;2.00;;;21.30;97.20;;;;;;1714518;28;20214;-68
2022/05/31 08:48:57;;;;;;;2.08;1.85;;;21.40;97.20;;;;;;1714529;28;20205;-68
2022/05/31 08:52:24;;;;;;;2.78;1.75;;;22.00;97.20;;;;;;1714514;28;20696;-68
2022/05/31 08:53:26;;;;;;;2.22;1.70;;;22.10;97.20;;;;;;1714597;28;20212;-69
2022/05/31 08:57:03;;;;;;;1.90;1.80;;;22.50;97.20;;;;;;1693723;29;20337;-68
2022/05/31 08:58:01;;;;;;;2.45;1.85;;;22.60;97.20;;;;;;1693491;28;20215;-69
2022/05/31 08:58:55;;;;;;;1.58;1.40;;;22.60;97.20;;;;;;1714498;28;20256;-69
2022/05/31 08:59:51;;;;;;;1.92;1.83;;;22.70;97.20;;;;;;1714368;28;20221;-69
2022/05/31 09:00:45;;;;;;;1.95;1.55;;;22.70;97.20;;;;;;1714459;28;20233;-69
2022/05/31 09:01:41;;;;;;;3.58;1.80;;;22.70;97.20;;;;;;1714480;28;20202;-69
2022/05/31 09:02:38;;;;;;;2.05;1.48;;;22.80;97.20;;;;;;1714455;28;20222;-69
2022/05/31 09:03:32;;;;;;;2.38;1.50;;;22.80;97.20;;;;;;1714545;28;20260;-69
2022/05/31 09:04:27;;;;;;;4.15;2.00;;;22.80;97.20;;;;;;1714398;28;20213;-69
2022/05/31 09:05:26;;;;;;;2.28;1.75;;;22.80;97.20;;;;;;1714391;28;20218;-69
2022/05/31 09:06:23;;;;;;;2.30;1.63;;;22.80;97.20;;;;;;1714428;28;20233;-69
2022/05/31 09:07:20;;;;;;;2.58;1.73;;;22.90;97.20;;;;;;1714258;28;20206;-68
2022/05/31 09:08:17;;;;;;;2.42;1.85;;;22.90;97.20;;;;;;1714417;28;20631;-69
2022/05/31 09:09:16;;;;;;;2.00;1.70;;;23.00;97.20;;;;;;1714475;28;20709;-69
2022/05/31 09:10:15;;;;;;;2.10;1.58;;;23.10;97.20;;;;;;1714466;28;20206;-68
2022/05/31 09:11:13;;;;;;;2.03;1.77;;;23.20;97.20;;;;;;1714438;28;20200;-69
2022/05/31 09:12:12;;;;;;;2.00;1.48;;;23.20;97.20;;;;;;1714055;28;20272;-69
2022/05/31 09:13:12;;;;;;;4.93;2.00;;;23.20;97.20;;;;;;1714383;28;20741;-69
2022/05/31 09:14:11;;;;;;;3.35;1.70;;;23.20;97.20;;;;;;1714349;28;20210;-69
2022/05/31 09:15:09;;;;;;;1.55;1.45;;;23.20;97.20;;;;;;1714375;28;20575;-69
2022/05/31 09:16:09;;;;;;;2.15;1.50;;;23.10;97.20;;;;;;1714343;28;20205;-69
2022/05/31 09:17:08;;;;;;;1.73;1.63;;;23.10;97.20;;;;;;1714053;28;20202;-69
2022/05/31 09:18:07;;;;;;;1.65;1.23;;;23.00;97.20;;;;;;1714360;28;20248;-71
2022/05/31 09:19:02;;;;;;;2.65;1.80;;;23.00;97.20;;;;;;1714224;28;20321;-68
2022/05/31 09:20:00;;;;;;;2.50;1.70;;;23.00;97.20;;;;;;1714319;28;20202;-68
2022/05/31 09:20:54;;;;;;;2.33;1.67;;;23.00;97.20;;;;;;1714405;28;20206;-69
2022/05/31 09:21:48;;;;;;;3.22;1.75;;;23.10;97.20;;;;;;1714200;28;20233;-71
2022/05/31 09:22:42;;;;;;;2.47;1.77;;;23.10;97.20;;;;;;1714274;28;20233;-69
2022/05/31 09:23:38;;;;;;;2.20;1.85;;;23.20;97.20;;;;;;1714358;28;20202;-69
2022/05/31 09:24:31;;;;;;;1.70;1.60;;;23.20;97.20;;;;;;1714412;28;20210;-68
2022/05/31 09:25:22;;;;;;;1.98;1.55;;;23.30;97.20;;;;;;1714348;28;20239;-69
2022/05/31 09:26:30;;;;;;;2.53;1.70;;;23.40;97.20;;;;;;1714313;28;20213;-69
2022/05/31 09:27:33;;;;;;;1.70;1.60;;;23.50;97.20;;;;;;1713594;28;20244;-68
2022/05/31 09:28:35;;;;;;;2.15;1.40;;;23.70;97.20;;;;;;1714099;28;20249;-68
2022/05/31 09:29:40;;;;;;;2.15;1.70;;;23.80;97.20;;;;;;1714375;28;20204;-69
2022/05/31 09:30:37;;;;;;;1.65;1.52;;;23.80;97.20;;;;;;1713794;28;20221;-69
2022/05/31 09:31:37;;;;;;;2.00;1.58;;;23.90;97.20;;;;;;1714301;28;20293;-69
2022/05/31 09:32:47;;;;;;;2.03;1.83;;;24.00;97.20;;;;;;1713753;28;20394;-69
2022/05/31 09:33:51;;;;;;;2.50;1.80;;;24.10;97.20;;;;;;1713602;28;20205;-69
2022/05/31 09:35:08;;;;;;;1.50;1.40;;;24.20;97.20;;;;;;1714273;28;20206;-69
2022/05/31 09:36:21;;;;;;;1.63;1.30;;;24.30;97.20;;;;;;1713291;28;20208;-69
2022/05/31 09:37:24;;;;;;;3.17;1.70;;;24.20;97.20;;;;;;1714014;28;20209;-69
2022/05/31 09:38:33;;;;;;;6.18;1.50;;;24.20;97.20;;;;;;1714201;28;20575;-69
2022/05/31 09:39:32;;;;;;;2.03;1.70;;;24.20;97.20;;;;;;1714249;28;20229;-69
2022/05/31 09:40:38;;;;;;;1.95;1.70;;;24.30;97.20;;;;;;1714208;28;20774;-69
2022/05/31 09:41:33;;;;;;;1.70;1.60;;;24.40;97.20;;;;;;1714349;28;20213;-68
2022/05/31 09:42:32;;;;;;;1.60;1.45;;;24.40;97.20;;;;;;1714160;28;20226;-69
2022/05/31 09:43:30;;;;;;;1.88;1.65;;;24.40;97.20;;;;;;1714152;28;20206;-69
2022/05/31 09:44:26;;;;;;;2.05;1.50;;;24.30;97.20;;;;;;1714155;28;20305;-69
2022/05/31 09:45:20;;;;;;;2.88;2.03;;;24.30;97.20;;;;;;1714202;28;20202;-69
2022/05/31 09:46:14;;;;;;;2.72;1.75;;;24.40;97.20;;;;;;1714070;28;20245;-69
2022/05/31 09:47:12;;;;;;;2.13;1.67;;;24.50;97.20;;;;;;1713831;28;20256;-68
2022/05/31 09:48:04;;;;;;;2.00;1.80;;;24.60;97.20;;;;;;1714060;28;20696;-69
2022/05/31 09:48:58;;;;;;;2.65;1.67;;;24.70;97.20;;;;;;1714070;28;20206;-69
2022/05/31 09:49:50;;;;;;;3.15;1.70;;;24.80;96.90;;;;;;1713749;28;20578;-69
2022/05/31 09:50:44;;;;;;;3.05;1.88;;;24.90;97.20;;;;;;1713547;28;20194;-69
2022/05/31 09:51:38;;;;;;;3.05;1.63;;;25.10;97.20;;;;;;1713978;28;20206;-69
2022/05/31 09:52:35;;;;;;;2.70;1.83;;;25.30;97.20;;;;;;1714152;28;20217;-69
2022/05/31 09:57:37;;;;;;;4.00;1.65;;;25.70;94.30;;;;;;1708448;28;20205;-68